Time;durP1;ratioP1;P1;durP2;ratioP2;P2;SDS_P1;SDS_P2;PMS_P1;PMS_P2;Temp;Humidity;BMP_temperature;BMP_pressure;BME280_temperature;BME280_humidity;BME280_pressure;Samples;Min_cycle;Max_cycle;Signal;HPM_P1;HPM_P2
2023/03/04 00:04:03;;;;;;;45.67;37.92;;;;;;;;;;10410826;27;20477;-61
2023/03/04 00:09:03;;;;;;;44.70;35.78;;;;;;;;;;10412444;27;20101;-61
2023/03/04 00:14:01;;;;;;;48.60;37.13;;;;;;;;;;10413358;27;20071;-60
2023/03/04 00:19:00;;;;;;;48.42;37.83;;;;;;;;;;10410485;27;20066;-61
2023/03/04 00:23:58;;;;;;;44.38;36.63;;;;;;;;;;10414531;27;20461;-61
2023/03/04 00:28:57;;;;;;;45.42;36.15;;;;;;;;;;10414280;27;20071;-60
2023/03/04 00:33:55;;;;;;;48.17;36.85;;;;;;;;;;10415882;27;20078;-60
2023/03/04 00:38:54;;;;;;;47.63;34.63;;;;;;;;;;10414747;27;20062;-61
2023/03/04 00:43:52;;;;;;;47.08;37.42;;;;;;;;;;10415606;27;20070;-62
2023/03/04 00:48:52;;;;;;;49.75;35.50;;;;;;;;;;10412901;27;20565;-62
2023/03/04 00:53:51;;;;;;;46.90;38.15;;;;;;;;;;10407025;27;20066;-61
2023/03/04 00:58:49;;;;;;;42.92;33.97;;;;;;;;;;10412922;27;20509;-60
2023/03/04 01:03:47;;;;;;;48.78;37.17;;;;;;;;;;10413073;27;20047;-63
2023/03/04 01:08:47;;;;;;;46.92;34.70;;;;;;;;;;10417045;27;20075;-60
2023/03/04 01:13:45;;;;;;;43.13;35.60;;;;;;;;;;10412086;27;20069;-60
2023/03/04 01:18:46;;;;;;;43.95;35.17;;;;;;;;;;10413201;27;20082;-61
2023/03/04 01:23:44;;;;;;;41.42;35.63;;;;;;;;;;10413607;27;20494;-62
2023/03/04 01:28:43;;;;;;;49.75;37.65;;;;;;;;;;10414156;27;20074;-61
2023/03/04 01:33:41;;;;;;;42.95;34.63;;;;;;;;;;10421916;27;20071;-61
2023/03/04 01:38:40;;;;;;;43.35;34.22;;;;;;;;;;10421020;27;20082;-61
2023/03/04 01:43:38;;;;;;;46.40;34.75;;;;;;;;;;10421904;27;20067;-61
2023/03/04 01:48:38;;;;;;;42.45;32.72;;;;;;;;;;10423097;27;20086;-60
2023/03/04 01:53:37;;;;;;;42.95;31.25;;;;;;;;;;10417382;27;20071;-60
2023/03/04 01:58:35;;;;;;;42.90;31.33;;;;;;;;;;10417549;27;20071;-61
2023/03/04 02:03:33;;;;;;;40.83;29.90;;;;;;;;;;10411099;27;20074;-61
2023/03/04 02:08:34;;;;;;;38.83;30.98;;;;;;;;;;10403553;27;20085;-61
2023/03/04 02:13:33;;;;;;;39.13;28.88;;;;;;;;;;10420441;27;20055;-61
2023/03/04 02:18:31;;;;;;;39.88;29.20;;;;;;;;;;10406162;27;20490;-61
2023/03/04 02:23:33;;;;;;;44.22;32.08;;;;;;;;;;10403943;27;20063;-61
2023/03/04 02:28:32;;;;;;;41.22;32.08;;;;;;;;;;10404489;27;20079;-62
2023/03/04 02:33:32;;;;;;;39.72;29.48;;;;;;;;;;10402185;27;20082;-62
2023/03/04 02:38:30;;;;;;;39.72;28.70;;;;;;;;;;10407864;27;20082;-62
2023/03/04 02:43:28;;;;;;;43.60;30.13;;;;;;;;;;10416308;27;20068;-62
2023/03/04 02:48:28;;;;;;;46.38;30.23;;;;;;;;;;10399862;27;20134;-61
2023/03/04 02:53:26;;;;;;;43.80;31.73;;;;;;;;;;10401735;27;20078;-61
2023/03/04 02:58:24;;;;;;;38.30;30.10;;;;;;;;;;10407465;27;20066;-61
2023/03/04 03:03:23;;;;;;;37.83;28.90;;;;;;;;;;10418540;27;20508;-59
2023/03/04 03:08:23;;;;;;;40.85;28.52;;;;;;;;;;10417660;27;20059;-60
2023/03/04 03:13:21;;;;;;;41.05;31.17;;;;;;;;;;10415106;27;20063;-61
2023/03/04 03:18:19;;;;;;;41.30;31.45;;;;;;;;;;10400483;27;20067;-60
2023/03/04 03:23:19;;;;;;;37.85;30.73;;;;;;;;;;10408900;27;20071;-61
2023/03/04 03:28:19;;;;;;;35.90;29.02;;;;;;;;;;10410326;27;20075;-62
2023/03/04 03:33:17;;;;;;;42.88;31.55;;;;;;;;;;10402274;27;20082;-61
2023/03/04 03:38:16;;;;;;;40.38;31.73;;;;;;;;;;10399497;27;20114;-61
2023/03/04 03:43:14;;;;;;;38.60;28.33;;;;;;;;;;10398949;27;20082;-61
2023/03/04 03:48:13;;;;;;;39.92;28.98;;;;;;;;;;10407845;27;20078;-62
2023/03/04 03:53:12;;;;;;;38.67;27.75;;;;;;;;;;10401769;27;20071;-60
2023/03/04 03:58:10;;;;;;;38.22;26.35;;;;;;;;;;10400960;27;20071;-61
2023/03/04 04:03:09;;;;;;;37.17;28.30;;;;;;;;;;10398892;27;20071;-61
2023/03/04 04:08:09;;;;;;;41.30;29.48;;;;;;;;;;10399731;27;20063;-62
2023/03/04 04:13:08;;;;;;;47.63;33.55;;;;;;;;;;10404351;27;20089;-61
2023/03/04 04:18:06;;;;;;;47.40;31.73;;;;;;;;;;10416573;27;20067;-61
2023/03/04 04:23:04;;;;;;;75.93;55.40;;;;;;;;;;10415905;27;20086;-61
2023/03/04 04:28:04;;;;;;;37.92;28.42;;;;;;;;;;10413971;27;20199;-61
2023/03/04 04:33:03;;;;;;;33.17;24.88;;;;;;;;;;10418127;27;20067;-61
2023/03/04 04:38:01;;;;;;;32.92;24.55;;;;;;;;;;10413042;27;20071;-61
2023/03/04 04:43:00;;;;;;;32.25;22.40;;;;;;;;;;10414201;27;20044;-61
2023/03/04 04:48:00;;;;;;;33.15;23.00;;;;;;;;;;10412351;27;20079;-60
2023/03/04 04:52:58;;;;;;;33.05;24.23;;;;;;;;;;10412174;27;20071;-61
2023/03/04 04:57:56;;;;;;;31.13;23.30;;;;;;;;;;10412282;27;20093;-61
2023/03/04 05:02:54;;;;;;;26.48;21.55;;;;;;;;;;10411593;27;20043;-62
2023/03/04 05:07:54;;;;;;;31.58;23.77;;;;;;;;;;10412558;27;20062;-61
2023/03/04 05:12:52;;;;;;;28.48;21.33;;;;;;;;;;10408246;27;20078;-61
2023/03/04 05:17:50;;;;;;;30.15;22.63;;;;;;;;;;10408893;27;20067;-61
2023/03/04 05:22:48;;;;;;;31.60;22.50;;;;;;;;;;10408104;27;20071;-62
2023/03/04 05:27:48;;;;;;;28.70;22.20;;;;;;;;;;10413545;28;20067;-61
2023/03/04 05:32:46;;;;;;;30.13;23.05;;;;;;;;;;10413495;28;20075;-61
2023/03/04 05:37:44;;;;;;;30.55;21.30;;;;;;;;;;10414342;28;20055;-61
2023/03/04 05:42:42;;;;;;;30.17;22.05;;;;;;;;;;10411320;28;20063;-61
2023/03/04 05:47:42;;;;;;;29.10;21.77;;;;;;;;;;10412013;27;20063;-61
2023/03/04 05:52:40;;;;;;;28.67;22.40;;;;;;;;;;10413362;27;20098;-61
2023/03/04 05:57:38;;;;;;;32.97;22.42;;;;;;;;;;10411665;28;20082;-61
2023/03/04 06:02:37;;;;;;;28.27;20.67;;;;;;;;;;10412943;27;20527;-62
2023/03/04 06:07:37;;;;;;;31.63;23.80;;;;;;;;;;10407548;28;20079;-61
2023/03/04 06:12:35;;;;;;;30.83;23.05;;;;;;;;;;10407146;28;20078;-62
2023/03/04 06:17:33;;;;;;;31.58;21.67;;;;;;;;;;10417857;27;20145;-62
2023/03/04 06:22:31;;;;;;;31.00;23.77;;;;;;;;;;10419413;27;20071;-62
2023/03/04 06:27:31;;;;;;;39.20;28.52;;;;;;;;;;10420964;27;20044;-62
2023/03/04 06:32:29;;;;;;;35.20;27.70;;;;;;;;;;10420106;27;20063;-62
2023/03/04 06:37:27;;;;;;;33.17;24.65;;;;;;;;;;10419037;27;20082;-62
2023/03/04 06:42:25;;;;;;;31.17;24.90;;;;;;;;;;10419133;27;20043;-62
2023/03/04 06:47:25;;;;;;;34.75;24.48;;;;;;;;;;10418100;27;20067;-62
2023/03/04 06:52:23;;;;;;;42.42;30.83;;;;;;;;;;10418793;27;20070;-62
2023/03/04 06:57:21;;;;;;;33.17;23.88;;;;;;;;;;10419693;27;20076;-63
2023/03/04 07:02:20;;;;;;;35.03;23.67;;;;;;;;;;10419065;27;20125;-62
2023/03/04 07:07:19;;;;;;;33.90;25.08;;;;;;;;;;10417978;27;20078;-62
2023/03/04 07:12:17;;;;;;;34.80;25.10;;;;;;;;;;10418582;27;20067;-61
2023/03/04 07:17:16;;;;;;;30.02;22.33;;;;;;;;;;10419393;27;20521;-62
2023/03/04 07:22:14;;;;;;;26.40;20.95;;;;;;;;;;10417326;27;20048;-61
2023/03/04 07:27:13;;;;;;;29.75;23.85;;;;;;;;;;10413795;27;20070;-63
2023/03/04 07:32:12;;;;;;;24.77;19.88;;;;;;;;;;10402605;27;20067;-61
2023/03/04 07:37:10;;;;;;;24.00;19.17;;;;;;;;;;10404910;27;20081;-62
2023/03/04 07:42:08;;;;;;;23.52;19.85;;;;;;;;;;10400681;27;20074;-62
2023/03/04 07:47:12;;;;;;;27.17;22.38;;;;;;;;;;10415189;27;20109;-62
2023/03/04 07:52:10;;;;;;;34.03;24.17;;;;;;;;;;10414681;27;20089;-62
2023/03/04 07:57:08;;;;;;;26.05;21.60;;;;;;;;;;10411778;27;20464;-62
2023/03/04 08:02:07;;;;;;;29.10;22.00;;;;;;;;;;10408548;27;20067;-62
2023/03/04 08:07:06;;;;;;;32.10;26.25;;;;;;;;;;10400120;27;20079;-62
2023/03/04 08:12:04;;;;;;;26.90;20.42;;;;;;;;;;10403504;27;20075;-61
2023/03/04 08:17:03;;;;;;;24.73;20.52;;;;;;;;;;10399384;27;20067;-62
2023/03/04 08:22:01;;;;;;;24.58;19.40;;;;;;;;;;10401360;27;20085;-62
2023/03/04 08:27:01;;;;;;;38.00;23.98;;;;;;;;;;10397506;27;20082;-61
2023/03/04 08:31:59;;;;;;;43.58;30.20;;;;;;;;;;10399413;27;20396;-62
2023/03/04 08:36:57;;;;;;;31.30;25.17;;;;;;;;;;10412608;27;20074;-61
2023/03/04 08:41:55;;;;;;;29.77;22.02;;;;;;;;;;10413568;27;20051;-61
2023/03/04 08:46:55;;;;;;;27.95;22.83;;;;;;;;;;10412187;27;20078;-62
2023/03/04 08:51:53;;;;;;;44.47;31.60;;;;;;;;;;10405096;27;20074;-62
2023/03/04 08:56:51;;;;;;;30.83;25.52;;;;;;;;;;10406283;27;20063;-62
2023/03/04 09:01:49;;;;;;;25.73;22.23;;;;;;;;;;10410781;27;20075;-62
2023/03/04 09:06:49;;;;;;;26.98;21.70;;;;;;;;;;10409127;27;20070;-61
2023/03/04 09:11:50;;;;;;;27.50;23.42;;;;;;;;;;10410941;27;20078;-62
2023/03/04 09:16:48;;;;;;;45.08;31.23;;;;;;;;;;10412853;27;20067;-62
2023/03/04 09:21:46;;;;;;;38.28;29.75;;;;;;;;;;10413360;27;20089;-62
2023/03/04 09:26:49;;;;;;;59.17;35.83;;;;;;;;;;10413510;27;20071;-61
2023/03/04 09:31:47;;;;;;;32.08;26.95;;;;;;;;;;10413630;27;20074;-63
2023/03/04 09:36:46;;;;;;;35.88;26.00;;;;;;;;;;10413576;27;20051;-61
2023/03/04 09:41:47;;;;;;;30.17;26.08;;;;;;;;;;10412666;28;20071;-61
2023/03/04 09:46:45;;;;;;;29.30;25.45;;;;;;;;;;10410778;28;20067;-62
2023/03/04 09:51:46;;;;;;;32.50;26.30;;;;;;;;;;10416526;27;20147;-62
2023/03/04 09:56:46;;;;;;;32.45;25.23;;;;;;;;;;10419768;27;20067;-62
2023/03/04 10:01:47;;;;;;;37.35;30.33;;;;;;;;;;10419818;27;20078;-62
2023/03/04 10:06:53;;;;;;;33.03;26.48;;;;;;;;;;10419726;27;20070;-62
2023/03/04 10:11:58;;;;;;;29.88;24.25;;;;;;;;;;10419993;27;20074;-62
2023/03/04 10:16:58;;;;;;;35.70;26.40;;;;;;;;;;10419132;27;20071;-62
2023/03/04 10:21:56;;;;;;;33.47;27.50;;;;;;;;;;10420825;27;20063;-62
2023/03/04 10:27:01;;;;;;;27.73;23.92;;;;;;;;;;10418996;27;20071;-62
2023/03/04 10:31:59;;;;;;;29.67;24.57;;;;;;;;;;10419480;27;20128;-61
2023/03/04 10:36:59;;;;;;;33.25;25.77;;;;;;;;;;10418204;27;20729;-62
2023/03/04 10:42:00;;;;;;;25.83;21.60;;;;;;;;;;10419386;27;20080;-61
2023/03/04 10:46:58;;;;;;;26.38;19.88;;;;;;;;;;10418252;27;20078;-62
2023/03/04 10:52:02;;;;;;;22.10;19.60;;;;;;;;;;10418036;27;20460;-62
2023/03/04 10:57:02;;;;;;;25.15;20.23;;;;;;;;;;10417468;27;20792;-62
2023/03/04 11:02:01;;;;;;;28.25;22.27;;;;;;;;;;10417189;27;20086;-61
2023/03/04 11:06:59;;;;;;;30.70;27.40;;;;;;;;;;10417358;27;20067;-61
2023/03/04 11:11:59;;;;;;;35.42;25.70;;;;;;;;;;10418086;27;20128;-62
2023/03/04 11:16:59;;;;;;;30.92;26.98;;;;;;;;;;10418945;27;20488;-62
2023/03/04 11:21:58;;;;;;;24.85;21.45;;;;;;;;;;10418680;27;20071;-62
2023/03/04 11:26:59;;;;;;;22.38;19.05;;;;;;;;;;10417135;27;20077;-62
2023/03/04 11:32:03;;;;;;;29.35;23.42;;;;;;;;;;10419032;27;20500;-62
2023/03/04 11:37:03;;;;;;;25.85;23.20;;;;;;;;;;10415892;27;20040;-62
2023/03/04 11:42:05;;;;;;;34.58;25.90;;;;;;;;;;10418135;27;20074;-62
2023/03/04 11:47:12;;;;;;;22.63;18.52;;;;;;;;;;10416596;27;20483;-61
2023/03/04 11:52:16;;;;;;;19.95;17.85;;;;;;;;;;10414746;27;20457;-62
2023/03/04 11:57:22;;;;;;;19.38;17.23;;;;;;;;;;10422735;27;20550;-62
2023/03/04 12:02:23;;;;;;;21.30;19.10;;;;;;;;;;10414325;27;20101;-62
2023/03/04 12:07:31;;;;;;;22.60;20.23;;;;;;;;;;10415032;27;20420;-61
2023/03/04 12:12:38;;;;;;;22.95;19.13;;;;;;;;;;10416364;27;20117;-62
2023/03/04 12:17:43;;;;;;;22.52;18.55;;;;;;;;;;10410264;27;20496;-62
2023/03/04 12:22:44;;;;;;;21.67;18.40;;;;;;;;;;10411252;27;20074;-61
2023/03/04 12:27:43;;;;;;;28.33;21.10;;;;;;;;;;10415087;27;20071;-62
2023/03/04 12:32:47;;;;;;;33.92;21.58;;;;;;;;;;10414789;27;20481;-61
2023/03/04 12:37:57;;;;;;;30.58;23.88;;;;;;;;;;10414774;27;20642;-61
2023/03/04 12:43:01;;;;;;;23.15;20.65;;;;;;;;;;10414463;27;20452;-62
2023/03/04 12:48:06;;;;;;;31.33;25.10;;;;;;;;;;10415614;27;20071;-62
2023/03/04 12:53:09;;;;;;;26.65;21.65;;;;;;;;;;10414339;27;20079;-62
2023/03/04 12:58:12;;;;;;;24.52;20.27;;;;;;;;;;10409436;27;20085;-62
2023/03/04 13:03:14;;;;;;;23.05;20.55;;;;;;;;;;10405765;27;20074;-61
2023/03/04 13:08:16;;;;;;;26.08;20.38;;;;;;;;;;10406589;27;20089;-62
2023/03/04 13:13:35;;;;;;;26.67;21.10;;;;;;;;;;10408947;27;20052;-61
2023/03/04 13:18:37;;;;;;;19.45;17.42;;;;;;;;;;10409330;27;20063;-61
2023/03/04 13:23:35;;;;;;;17.73;15.02;;;;;;;;;;10410631;27;20552;-62
2023/03/04 13:28:34;;;;;;;22.30;18.77;;;;;;;;;;10406500;28;20066;-61
2023/03/04 13:33:52;;;;;;;23.02;16.90;;;;;;;;;;10411334;28;20100;-62
2023/03/04 13:38:57;;;;;;;24.77;20.38;;;;;;;;;;10409145;28;20922;-62
2023/03/04 13:43:55;;;;;;;31.00;25.20;;;;;;;;;;10405995;28;20067;-62
2023/03/04 13:49:02;;;;;;;31.33;24.30;;;;;;;;;;10404471;28;20515;-62
2023/03/04 13:54:07;;;;;;;22.80;17.20;;;;;;;;;;10404093;28;20083;-61
2023/03/04 13:59:21;;;;;;;26.50;22.42;;;;;;;;;;10408965;28;20516;-61
2023/03/04 14:04:23;;;;;;;24.98;20.08;;;;;;;;;;10408412;28;20074;-62
2023/03/04 14:09:22;;;;;;;27.02;20.85;;;;;;;;;;10404592;28;20074;-62
2023/03/04 14:14:22;;;;;;;43.80;30.33;;;;;;;;;;10404783;28;20500;-62
2023/03/04 14:19:24;;;;;;;26.58;21.42;;;;;;;;;;10395290;28;20067;-62
2023/03/04 14:24:23;;;;;;;36.78;28.35;;;;;;;;;;10395833;28;20071;-62
2023/03/04 14:29:24;;;;;;;60.60;43.03;;;;;;;;;;10399705;28;20078;-62
2023/03/04 14:34:28;;;;;;;98.05;76.70;;;;;;;;;;10398981;28;20071;-62
2023/03/04 14:39:29;;;;;;;117.20;77.27;;;;;;;;;;10402915;27;20063;-62
2023/03/04 14:44:34;;;;;;;67.28;45.28;;;;;;;;;;10403864;27;20527;-62
2023/03/04 14:49:35;;;;;;;46.90;39.00;;;;;;;;;;10405966;27;20079;-62
2023/03/04 14:54:34;;;;;;;44.10;34.78;;;;;;;;;;10408491;27;20074;-62
2023/03/04 14:59:34;;;;;;;35.58;30.65;;;;;;;;;;10400071;27;20067;-60
2023/03/04 15:04:37;;;;;;;36.90;27.50;;;;;;;;;;10400000;27;20055;-62
2023/03/04 15:09:35;;;;;;;46.53;33.85;;;;;;;;;;10403195;27;20090;-60
2023/03/04 15:14:52;;;;;;;36.42;30.13;;;;;;;;;;10406590;27;20082;-61
2023/03/04 15:20:03;;;;;;;38.65;25.30;;;;;;;;;;10401072;27;20078;-62
2023/03/04 15:25:02;;;;;;;41.17;29.42;;;;;;;;;;10411704;27;20075;-62
2023/03/04 15:30:01;;;;;;;37.72;25.13;;;;;;;;;;10412517;27;20546;-63
2023/03/04 15:34:59;;;;;;;39.10;31.25;;;;;;;;;;10410116;27;20091;-63
2023/03/04 15:39:59;;;;;;;42.90;32.10;;;;;;;;;;10413720;27;20160;-64
2023/03/04 15:44:57;;;;;;;27.98;23.40;;;;;;;;;;10415478;27;20062;-64
2023/03/04 15:49:55;;;;;;;39.58;31.52;;;;;;;;;;10414424;27;20062;-64
2023/03/04 15:54:53;;;;;;;44.20;36.35;;;;;;;;;;10416710;27;20090;-63
2023/03/04 15:59:53;;;;;;;40.72;30.23;;;;;;;;;;10416450;27;20085;-64
2023/03/04 16:04:51;;;;;;;54.90;43.88;;;;;;;;;;10414519;27;20036;-64
2023/03/04 16:09:52;;;;;;;45.47;34.25;;;;;;;;;;10419177;27;20105;-63
2023/03/04 16:14:51;;;;;;;64.88;46.53;;;;;;;;;;10413963;27;20074;-63
2023/03/04 16:19:51;;;;;;;95.90;70.63;;;;;;;;;;10415238;27;20102;-62
2023/03/04 16:24:49;;;;;;;46.53;39.80;;;;;;;;;;10415239;27;20529;-62
2023/03/04 16:29:47;;;;;;;32.80;27.25;;;;;;;;;;10413809;27;20094;-63
2023/03/04 16:34:46;;;;;;;56.15;36.92;;;;;;;;;;10414655;27;20576;-62
2023/03/04 16:39:48;;;;;;;42.00;34.47;;;;;;;;;;10414370;27;20070;-63
2023/03/04 16:44:46;;;;;;;41.08;31.35;;;;;;;;;;10414230;27;20067;-62
2023/03/04 16:49:44;;;;;;;49.85;36.47;;;;;;;;;;10414028;27;20515;-62
2023/03/04 16:54:42;;;;;;;53.58;39.17;;;;;;;;;;10413926;27;20079;-62
2023/03/04 16:59:42;;;;;;;43.20;32.65;;;;;;;;;;10410905;27;20516;-62
2023/03/04 17:04:40;;;;;;;34.17;29.42;;;;;;;;;;10406339;27;20074;-62
2023/03/04 17:09:38;;;;;;;31.00;25.85;;;;;;;;;;10408678;27;20046;-64
2023/03/04 17:14:37;;;;;;;23.80;20.13;;;;;;;;;;10415844;27;20067;-63
2023/03/04 17:19:36;;;;;;;25.67;21.45;;;;;;;;;;10408812;27;20070;-62
2023/03/04 17:24:35;;;;;;;39.03;27.50;;;;;;;;;;10405238;27;20059;-62
2023/03/04 17:29:35;;;;;;;69.28;40.55;;;;;;;;;;10410652;27;20082;-61
2023/03/04 17:34:34;;;;;;;41.70;29.80;;;;;;;;;;10399471;28;20499;-63
2023/03/04 17:39:33;;;;;;;30.17;24.95;;;;;;;;;;10404412;28;20067;-63
2023/03/04 17:44:32;;;;;;;37.63;27.42;;;;;;;;;;10396345;28;20074;-62
2023/03/04 17:49:30;;;;;;;47.08;30.10;;;;;;;;;;10402899;28;20082;-62
2023/03/04 17:54:28;;;;;;;40.90;30.13;;;;;;;;;;10402918;28;20075;-62
2023/03/04 17:59:27;;;;;;;36.90;29.63;;;;;;;;;;10395182;28;20075;-64
2023/03/04 18:04:26;;;;;;;39.95;34.45;;;;;;;;;;10401083;28;20079;-63
2023/03/04 18:09:24;;;;;;;78.47;55.08;;;;;;;;;;10407918;28;20085;-61
2023/03/04 18:14:22;;;;;;;45.40;31.77;;;;;;;;;;10402242;27;20531;-64
2023/03/04 18:19:21;;;;;;;56.05;43.38;;;;;;;;;;10400939;27;20062;-64
2023/03/04 18:24:20;;;;;;;49.13;34.85;;;;;;;;;;10406528;27;20075;-64
2023/03/04 18:29:18;;;;;;;33.97;25.85;;;;;;;;;;10403728;27;20505;-63
2023/03/04 18:34:16;;;;;;;49.20;35.72;;;;;;;;;;10409569;27;20070;-63
2023/03/04 18:39:16;;;;;;;32.72;24.42;;;;;;;;;;10420435;27;20090;-63
2023/03/04 18:44:14;;;;;;;31.35;23.92;;;;;;;;;;10411137;27;20067;-63
2023/03/04 18:49:14;;;;;;;41.17;25.23;;;;;;;;;;10411196;27;20073;-64
2023/03/04 18:54:12;;;;;;;24.17;19.60;;;;;;;;;;10407802;27;20066;-64
2023/03/04 18:59:15;;;;;;;31.52;22.67;;;;;;;;;;10403981;27;20078;-63
2023/03/04 19:04:14;;;;;;;30.60;21.05;;;;;;;;;;10406157;27;20145;-64
2023/03/04 19:09:13;;;;;;;25.60;21.35;;;;;;;;;;10409680;27;20078;-64
2023/03/04 19:14:12;;;;;;;28.77;23.20;;;;;;;;;;10417662;27;20464;-64
2023/03/04 19:19:11;;;;;;;25.73;21.30;;;;;;;;;;10400808;27;20516;-64
2023/03/04 19:24:09;;;;;;;33.10;26.25;;;;;;;;;;10405468;27;20063;-63
2023/03/04 19:29:07;;;;;;;22.30;18.73;;;;;;;;;;10400096;27;20496;-61
2023/03/04 19:34:07;;;;;;;23.73;16.92;;;;;;;;;;10400243;27;20078;-65
2023/03/04 19:39:05;;;;;;;21.50;16.27;;;;;;;;;;10410902;27;20079;-66
2023/03/04 19:44:03;;;;;;;21.20;17.17;;;;;;;;;;10413074;27;20181;-66
2023/03/04 19:49:02;;;;;;;26.35;17.40;;;;;;;;;;10412382;27;20055;-65
2023/03/04 19:54:01;;;;;;;21.98;16.08;;;;;;;;;;10403704;27;20158;-66
2023/03/04 19:59:01;;;;;;;24.30;17.10;;;;;;;;;;10411630;27;20324;-65
2023/03/04 20:04:00;;;;;;;26.30;16.33;;;;;;;;;;10401743;27;20489;-65
2023/03/04 20:08:59;;;;;;;35.83;21.90;;;;;;;;;;10411838;27;20598;-66
2023/03/04 20:14:00;;;;;;;25.65;18.75;;;;;;;;;;10414758;27;20063;-65
2023/03/04 20:18:58;;;;;;;22.08;18.58;;;;;;;;;;10401210;27;20086;-66
2023/03/04 20:23:57;;;;;;;30.70;23.60;;;;;;;;;;10400797;27;20074;-66
2023/03/04 20:28:55;;;;;;;24.65;16.90;;;;;;;;;;10404679;27;20059;-64
2023/03/04 20:33:55;;;;;;;36.72;21.10;;;;;;;;;;10405987;27;20078;-66
2023/03/04 20:38:54;;;;;;;42.90;26.88;;;;;;;;;;10409448;27;20071;-66
2023/03/04 20:44:00;;;;;;;51.20;32.17;;;;;;;;;;10405179;27;20084;-65
2023/03/04 20:49:00;;;;;;;45.08;28.13;;;;;;;;;;10400626;27;20066;-66
2023/03/04 20:53:59;;;;;;;38.85;25.67;;;;;;;;;;10398032;27;20071;-63
2023/03/04 20:58:59;;;;;;;38.53;24.15;;;;;;;;;;10395714;28;20082;-66
2023/03/04 21:03:58;;;;;;;34.95;20.63;;;;;;;;;;10398320;27;20055;-66
2023/03/04 21:09:00;;;;;;;35.20;23.02;;;;;;;;;;10400014;27;20110;-65
2023/03/04 21:13:58;;;;;;;26.48;17.95;;;;;;;;;;10397636;27;20071;-66
2023/03/04 21:18:57;;;;;;;22.58;16.48;;;;;;;;;;10397724;28;20071;-65
2023/03/04 21:23:56;;;;;;;19.45;15.15;;;;;;;;;;10400968;27;20071;-65
2023/03/04 21:28:56;;;;;;;24.95;15.63;;;;;;;;;;10396941;28;20059;-65
2023/03/04 21:33:55;;;;;;;25.60;18.55;;;;;;;;;;10400428;28;20074;-66
2023/03/04 21:38:53;;;;;;;23.63;18.20;;;;;;;;;;10401040;28;20510;-66
2023/03/04 21:43:51;;;;;;;24.70;18.20;;;;;;;;;;10395428;28;20157;-66
2023/03/04 21:48:51;;;;;;;29.02;20.63;;;;;;;;;;10405779;27;20071;-66
2023/03/04 21:53:49;;;;;;;34.22;19.70;;;;;;;;;;10411566;27;20075;-65
2023/03/04 21:58:47;;;;;;;26.58;16.88;;;;;;;;;;10409800;27;20075;-66
2023/03/04 22:03:47;;;;;;;29.05;18.23;;;;;;;;;;10406902;27;20060;-66
2023/03/04 22:08:47;;;;;;;29.02;18.98;;;;;;;;;;10415439;27;20137;-66
2023/03/04 22:13:45;;;;;;;31.55;21.35;;;;;;;;;;10404481;27;20083;-67
2023/03/04 22:18:43;;;;;;;29.98;18.45;;;;;;;;;;10403086;27;20505;-66
2023/03/04 22:23:42;;;;;;;26.65;19.10;;;;;;;;;;10403755;27;20482;-65
2023/03/04 22:28:41;;;;;;;24.17;16.88;;;;;;;;;;10421568;27;20071;-66
2023/03/04 22:33:39;;;;;;;25.90;16.80;;;;;;;;;;10413466;27;20054;-65
2023/03/04 22:38:38;;;;;;;26.40;18.50;;;;;;;;;;10413427;27;20476;-66
2023/03/04 22:43:36;;;;;;;25.80;16.48;;;;;;;;;;10418093;27;20047;-65
2023/03/04 22:48:35;;;;;;;25.73;16.25;;;;;;;;;;10404123;27;20420;-65
2023/03/04 22:53:33;;;;;;;29.88;17.23;;;;;;;;;;10402867;27;20083;-67
2023/03/04 22:58:32;;;;;;;25.98;17.65;;;;;;;;;;10405064;27;20082;-65
2023/03/04 23:03:30;;;;;;;29.67;17.67;;;;;;;;;;10421004;27;20075;-65
2023/03/04 23:08:30;;;;;;;26.52;17.50;;;;;;;;;;10415339;27;20094;-65
2023/03/04 23:13:28;;;;;;;26.30;17.92;;;;;;;;;;10416251;27;20075;-64
2023/03/04 23:18:26;;;;;;;24.30;16.80;;;;;;;;;;10420288;27;20110;-65
2023/03/04 23:23:25;;;;;;;32.90;17.92;;;;;;;;;;10415041;27;20090;-65
2023/03/04 23:28:24;;;;;;;25.95;17.30;;;;;;;;;;10416600;27;20472;-65
2023/03/04 23:33:22;;;;;;;29.67;19.63;;;;;;;;;;10417862;27;20071;-65
2023/03/04 23:38:21;;;;;;;26.33;18.13;;;;;;;;;;10415823;27;20085;-66
2023/03/04 23:43:19;;;;;;;30.83;18.17;;;;;;;;;;10416035;27;20070;-65
2023/03/04 23:48:18;;;;;;;29.77;17.77;;;;;;;;;;10415483;27;20067;-65
2023/03/04 23:53:18;;;;;;;29.88;19.65;;;;;;;;;;10412926;27;20070;-65
2023/03/04 23:58:16;;;;;;;36.03;21.98;;;;;;;;;;10409369;27;20086;-65
